Accomack County Airport

About
Name: Accomack County Airport
Identifier:  MFV/KMFV
Local Time:  20. Aug 10:28 EDT
Location
Flights per Day
0 flights
Distance: 633km (393mi)
Punctuality
0% (0 flights per day delayed)
Delay Average: 41 minutes
Current Weather
 29 C (Humidity: 74%)
  5kt (9km/h / 5mph) from 310°
  16km (10 mi.)
 
 METAR KMFV 201355Z AUTO 31005KT 10SM CLR 29/24 A3008 RMK AO2 T02850237

Current Flights

Departures
Number Departure To Airline
Arrivals
Number Arrival From Airline

Current Delays

Departures
N/A
Arrivals
N/A

Destinations

Top Destinations
Airport Flights
per week
Seats
per week
  Wildwood (WWD) 0 - 0 0
  Portland (PWM) 0 - 0 0
  Columbia (CAE) 0 - 0 0
  Norfolk (ORF) 0 - 0 0
  Greenville (GMU) 0 - 0 0
  Raleigh-Durham (RDU) 0 - 0 0
  Burlington (BTV) 0 - 0 0
  Philadelphia (BBX) 0 - 0 0

Airlines & Planes

Top Airlines
Airline Flights
per Day
Seats
per Day
Gama Aviation 0 -
  National Airlines 0 -
Jet Charter Inc ( Franklin Lakes Nj ) 0 -
  Flybe Nordic 0 -
Nordwind Airlines 0 -
Top Plane Types
Model Flights Seats
Beech B300 Super King Air 350 0.1/day - 0
Piper PA-32R-301T Saratoga II 0.1/day - 0
Beech E90 King Air 0.0/day - 0